Time;durP1;ratioP1;P1;durP2;ratioP2;P2;SDS_P1;SDS_P2;PMS_P1;PMS_P2;Temp;Humidity;BMP_temperature;BMP_pressure;BME280_temperature;BME280_humidity;BME280_pressure;Samples;Min_cycle;Max_cycle;Signal;HPM_P1;HPM_P2
2022/01/09 00:01:11;;;;;;;19.10;3.25;;;;;;;6.77;80.30;99540.44;5095040;28;20052;-67
2022/01/09 00:03:39;;;;;;;19.55;2.53;;;;;;;6.71;80.80;99539.00;5094773;28;20063;-66
2022/01/09 00:06:07;;;;;;;24.48;4.05;;;;;;;6.72;80.53;99546.88;5093754;28;20055;-68
2022/01/09 00:08:34;;;;;;;25.00;3.70;;;;;;;6.93;80.42;99546.28;5095219;28;20036;-67
2022/01/09 00:11:02;;;;;;;28.65;3.90;;;;;;;6.96;79.26;99548.41;5095039;28;20059;-68
2022/01/09 00:13:29;;;;;;;21.92;3.28;;;;;;;6.80;79.57;99557.03;5094535;28;20070;-69
2022/01/09 00:15:56;;;;;;;22.67;2.85;;;;;;;6.75;79.44;99557.19;5094617;28;20059;-67
2022/01/09 00:18:23;;;;;;;22.95;3.38;;;;;;;6.66;80.21;99570.03;5096770;28;20043;-67
2022/01/09 00:20:51;;;;;;;17.25;3.30;;;;;;;6.57;80.54;99565.66;5095938;28;20055;-68
2022/01/09 00:23:18;;;;;;;21.50;3.45;;;;;;;6.59;80.90;99579.81;5090285;28;20044;-67
2022/01/09 00:25:45;;;;;;;24.05;3.45;;;;;;;6.56;81.12;99572.22;5094582;28;20044;-68
2022/01/09 00:28:18;;;;;;;17.73;2.90;;;;;;;6.56;81.82;99594.94;5093407;28;20155;-68
2022/01/09 00:30:46;;;;;;;23.65;4.38;;;;;;;6.55;81.83;99598.81;5095011;28;20044;-68
2022/01/09 00:33:13;;;;;;;20.10;3.70;;;;;;;6.66;81.50;99599.31;5095276;28;20375;-68
2022/01/09 00:35:41;;;;;;;24.88;3.95;;;;;;;6.66;80.85;99605.59;5094605;28;20048;-66
2022/01/09 00:38:08;;;;;;;21.17;2.78;;;;;;;6.61;80.25;99604.91;5094619;28;20056;-67
2022/01/09 00:40:35;;;;;;;28.67;3.53;;;;;;;6.36;80.94;99622.00;5092856;28;20439;-68
2022/01/09 00:43:02;;;;;;;27.13;3.45;;;;;;;6.39;79.95;99624.94;5094857;28;20052;-68
2022/01/09 00:45:29;;;;;;;26.13;3.28;;;;;;;6.49;80.60;99637.53;5094394;28;20044;-67
2022/01/09 00:47:57;;;;;;;25.33;3.10;;;;;;;6.53;80.06;99647.53;5093330;28;20060;-67
2022/01/09 00:50:24;;;;;;;24.13;3.75;;;;;;;6.50;79.85;99645.41;5095321;28;20048;-67
2022/01/09 00:52:51;;;;;;;23.00;3.50;;;;;;;6.36;79.61;99649.34;5095223;28;20407;-67
2022/01/09 00:55:18;;;;;;;19.15;3.45;;;;;;;6.46;79.67;99647.16;5093093;28;20044;-66
2022/01/09 00:57:46;;;;;;;24.00;3.78;;;;;;;6.33;78.04;99660.94;5088941;28;20043;-67
2022/01/09 01:00:14;;;;;;;23.17;4.30;;;;;;;6.32;78.10;99664.75;5094587;28;20048;-67
2022/01/09 01:02:41;;;;;;;20.05;3.00;;;;;;;6.45;77.75;99681.09;5083065;28;20052;-66
2022/01/09 01:05:09;;;;;;;17.95;3.22;;;;;;;6.52;77.03;99688.88;5091208;28;20051;-67
2022/01/09 01:07:36;;;;;;;18.48;3.65;;;;;;;6.48;77.01;99688.69;5101353;28;20039;-66
2022/01/09 01:10:10;;;;;;;24.02;4.03;;;;;;;6.52;76.97;99710.78;5099430;28;20056;-67
2022/01/09 01:12:37;;;;;;;20.15;2.72;;;;;;;6.70;78.34;99717.97;5094547;28;20059;-68
2022/01/09 01:15:05;;;;;;;19.63;2.58;;;;;;;6.55;77.02;99729.28;5093973;28;20059;-67
2022/01/09 01:17:33;;;;;;;21.77;3.33;;;;;;;6.49;77.38;99720.41;5094490;28;20051;-68
2022/01/09 01:20:00;;;;;;;22.30;3.42;;;;;;;6.50;77.26;99722.00;5094849;28;20052;-66
2022/01/09 01:22:29;;;;;;;25.85;2.80;;;;;;;6.26;78.28;99731.66;5094991;28;20051;-67
2022/01/09 01:24:57;;;;;;;19.38;2.78;;;;;;;6.25;78.04;99741.75;5094550;28;20047;-66
2022/01/09 01:27:25;;;;;;;12.65;2.50;;;;;;;6.23;78.50;99738.53;5094717;28;20036;-67
2022/01/09 01:29:53;;;;;;;19.95;2.83;;;;;;;6.13;79.54;99754.34;5094814;28;20059;-67
2022/01/09 01:32:22;;;;;;;22.33;3.10;;;;;;;6.16;79.48;99762.75;5094768;28;20048;-67
2022/01/09 01:34:49;;;;;;;16.52;2.30;;;;;;;6.29;80.10;99766.56;5093187;28;20047;-68
2022/01/09 01:37:17;;;;;;;21.83;2.63;;;;;;;6.07;80.97;99780.16;5093107;28;20471;-68
2022/01/09 01:39:44;;;;;;;14.23;2.10;;;;;;;6.28;82.17;99773.13;5096341;28;20052;-67
2022/01/09 01:42:11;;;;;;;14.48;2.45;;;;;;;6.20;81.80;99787.53;5098388;28;20052;-67
2022/01/09 01:44:43;;;;;;;18.58;3.17;;;;;;;6.23;80.04;99784.19;5083993;28;20045;-68
2022/01/09 01:47:13;;;;;;;25.35;3.83;;;;;;;6.19;79.94;99770.31;5078113;28;20045;-67
2022/01/09 01:49:41;;;;;;;14.00;2.90;;;;;;;6.31;79.61;99781.53;5078108;28;20063;-67
2022/01/09 01:52:09;;;;;;;19.42;2.80;;;;;;;6.32;79.91;99798.75;5089239;28;20052;-67
2022/01/09 01:54:39;;;;;;;19.85;3.40;;;;;;;6.34;79.55;99793.78;5097867;28;20044;-67
2022/01/09 01:57:07;;;;;;;21.10;3.25;;;;;;;6.37;78.95;99799.47;5097331;28;20044;-67
2022/01/09 01:59:35;;;;;;;20.27;3.17;;;;;;;6.33;79.00;99809.38;5096102;28;20052;-68
2022/01/09 02:02:03;;;;;;;19.75;3.15;;;;;;;6.34;79.70;99812.94;5097335;28;20056;-68
2022/01/09 02:04:30;;;;;;;18.77;3.03;;;;;;;6.28;79.49;99820.44;5095803;28;20052;-68
2022/01/09 02:06:59;;;;;;;16.30;2.28;;;;;;;6.06;79.98;99827.75;5097726;28;20128;-67
2022/01/09 02:09:26;;;;;;;18.35;2.83;;;;;;;6.05;81.08;99837.88;5096584;28;20052;-68
2022/01/09 02:11:53;;;;;;;18.00;2.67;;;;;;;6.22;81.50;99829.06;5097846;28;20052;-67
2022/01/09 02:14:20;;;;;;;15.52;2.20;;;;;;;6.19;79.83;99849.63;5097947;28;20059;-68
2022/01/09 02:16:50;;;;;;;13.45;2.60;;;;;;;6.07;79.82;99854.78;5095870;28;20051;-68
2022/01/09 02:19:20;;;;;;;10.73;2.00;;;;;;;6.47;79.45;99848.47;5096731;28;20052;-67
2022/01/09 02:21:47;;;;;;;13.00;2.05;;;;;;;6.28;77.53;99856.00;5097582;28;20048;-67
2022/01/09 02:24:15;;;;;;;13.18;2.33;;;;;;;6.07;78.00;99852.06;5096379;28;20059;-67
2022/01/09 02:26:42;;;;;;;12.80;2.20;;;;;;;6.25;77.19;99880.41;5097330;28;20052;-67
2022/01/09 02:29:10;;;;;;;15.68;1.95;;;;;;;6.42;76.54;99862.25;5096411;28;20048;-67
2022/01/09 02:31:37;;;;;;;8.73;1.30;;;;;;;6.26;74.82;99866.41;5096233;28;20047;-66
2022/01/09 02:34:04;;;;;;;10.13;2.08;;;;;;;6.21;74.67;99861.06;5097415;28;20073;-66
2022/01/09 02:36:32;;;;;;;7.03;1.67;;;;;;;6.32;73.18;99867.13;5097048;28;20059;-67
2022/01/09 02:38:59;;;;;;;8.95;1.52;;;;;;;6.35;73.95;99869.25;5096058;28;20055;-67
2022/01/09 02:41:27;;;;;;;8.63;1.52;;;;;;;6.23;74.20;99868.94;5097189;28;20044;-67
2022/01/09 02:43:54;;;;;;;11.50;1.48;;;;;;;6.25;75.73;99889.41;5089076;28;20052;-66
2022/01/09 02:48:55;;;;;;;14.82;1.90;;;;;;;6.07;78.26;99882.13;5097021;28;20052;-67
2022/01/09 02:51:22;;;;;;;9.40;1.65;;;;;;;6.08;78.60;99889.22;5096379;28;20056;-68
2022/01/09 02:53:57;;;;;;;10.15;1.70;;;;;;;6.13;79.27;99899.25;5097010;28;20052;-67
2022/01/09 02:56:24;;;;;;;10.20;1.70;;;;;;;6.03;79.24;99892.06;5096584;28;20503;-67
2022/01/09 02:58:51;;;;;;;10.02;1.70;;;;;;;5.93;79.34;99897.72;5096919;28;20499;-67
2022/01/09 03:01:18;;;;;;;11.25;1.98;;;;;;;5.94;79.22;99893.06;5096908;28;20058;-67
2022/01/09 03:03:46;;;;;;;12.20;2.10;;;;;;;5.98;78.67;99894.09;5095544;28;20048;-67
2022/01/09 03:06:13;;;;;;;11.30;2.30;;;;;;;5.86;79.10;99900.03;5096958;28;20052;-67
2022/01/09 03:08:40;;;;;;;14.00;2.10;;;;;;;5.92;78.81;99900.75;5096915;28;20044;-67
2022/01/09 03:11:08;;;;;;;11.70;1.85;;;;;;;5.89;78.86;99899.44;5094958;28;20062;-69
2022/01/09 03:13:35;;;;;;;14.02;1.40;;;;;;;6.01;78.69;99904.41;5096577;28;20044;-66
2022/01/09 03:16:03;;;;;;;12.50;1.83;;;;;;;6.06;78.34;99916.06;5095276;28;20410;-68
2022/01/09 03:18:30;;;;;;;10.70;2.15;;;;;;;6.01;77.99;99918.91;5096426;28;20059;-67
2022/01/09 03:20:57;;;;;;;17.08;2.97;;;;;;;5.94;77.92;99918.47;5096675;28;20075;-67
2022/01/09 03:23:24;;;;;;;11.25;2.00;;;;;;;5.91;78.03;99924.53;5096522;28;20376;-67
2022/01/09 03:25:51;;;;;;;15.93;1.75;;;;;;;6.13;78.54;99924.66;5095902;28;20048;-67
2022/01/09 03:28:19;;;;;;;13.50;2.10;;;;;;;6.27;77.74;99928.22;5095191;28;20476;-67
2022/01/09 03:30:46;;;;;;;13.05;2.00;;;;;;;6.59;77.23;99919.88;5078429;28;20056;-67
2022/01/09 03:33:13;;;;;;;11.18;1.75;;;;;;;6.45;76.33;99929.22;5096330;28;20081;-67
2022/01/09 03:35:40;;;;;;;14.52;2.03;;;;;;;6.64;76.52;99935.38;5096002;28;20048;-67
2022/01/09 03:38:08;;;;;;;11.85;1.80;;;;;;;6.22;77.04;99960.31;5094598;28;20051;-68
2022/01/09 03:40:35;;;;;;;17.15;2.13;;;;;;;6.05;78.90;99958.16;5076807;28;20360;-68
2022/01/09 03:43:02;;;;;;;14.23;2.53;;;;;;;6.29;78.95;99956.06;5095101;28;20048;-68
2022/01/09 03:45:30;;;;;;;13.40;2.08;;;;;;;6.20;79.27;99963.34;5090258;28;20052;-68
2022/01/09 03:47:57;;;;;;;14.82;2.30;;;;;;;6.20;79.83;99966.09;5094931;28;20048;-68
2022/01/09 03:50:25;;;;;;;11.70;1.77;;;;;;;6.17;80.85;99968.63;5096050;28;20055;-67
2022/01/09 03:52:53;;;;;;;16.20;2.90;;;;;;;6.52;80.32;99965.97;5094716;28;20048;-67
2022/01/09 03:55:21;;;;;;;15.55;2.17;;;;;;;6.14;80.15;99964.56;5095561;28;20036;-68
2022/01/09 03:57:49;;;;;;;15.95;2.80;;;;;;;6.35;80.26;99970.44;5095456;28;20040;-68
2022/01/09 04:00:18;;;;;;;13.93;2.00;;;;;;;6.16;80.33;99976.00;5095397;28;20058;-68
2022/01/09 04:02:48;;;;;;;15.98;2.55;;;;;;;6.34;80.12;99977.03;5095535;28;20048;-68
2022/01/09 04:05:16;;;;;;;12.55;1.98;;;;;;;6.32;78.42;99968.31;5095821;28;20052;-67
2022/01/09 04:07:44;;;;;;;17.50;2.78;;;;;;;6.07;79.95;99975.06;5095210;28;20487;-67
2022/01/09 04:10:28;;;;;;;15.35;2.60;;;;;;;6.12;79.57;99957.78;5095085;28;20399;-66
2022/01/09 04:12:59;;;;;;;18.52;2.30;;;;;;;5.94;80.31;99956.75;5095747;28;20047;-66
2022/01/09 04:15:28;;;;;;;14.52;1.80;;;;;;;6.00;80.39;99957.47;5095527;28;20158;-67
2022/01/09 04:17:56;;;;;;;14.18;3.00;;;;;;;6.22;79.98;99954.84;5095138;28;20048;-67
2022/01/09 04:20:25;;;;;;;14.20;2.35;;;;;;;6.35;79.58;99957.56;5095677;28;20048;-67
2022/01/09 04:22:53;;;;;;;22.80;2.65;;;;;;;6.46;78.68;99948.06;5095826;28;20052;-67
2022/01/09 04:25:21;;;;;;;19.33;2.50;;;;;;;6.20;78.14;99960.63;5094520;28;20055;-67
2022/01/09 04:27:50;;;;;;;16.85;2.83;;;;;;;6.09;79.78;99966.56;5093905;28;20139;-67
2022/01/09 04:30:18;;;;;;;17.75;2.40;;;;;;;6.15;79.63;99970.84;5095514;28;20617;-67
2022/01/09 04:32:46;;;;;;;14.18;2.15;;;;;;;6.18;80.01;99972.97;5095910;28;20495;-67
2022/01/09 04:35:14;;;;;;;12.75;2.30;;;;;;;6.18;80.00;99978.44;5095353;28;20044;-66
2022/01/09 04:37:41;;;;;;;13.93;2.30;;;;;;;6.07;79.63;99961.41;5094954;28;20055;-66
2022/01/09 04:40:12;;;;;;;11.23;2.78;;;;;;;5.91;81.86;99972.94;5094750;28;20059;-68
2022/01/09 04:42:48;;;;;;;11.43;2.08;;;;;;;6.03;81.23;99974.06;5094247;28;20082;-67
2022/01/09 04:45:18;;;;;;;16.25;3.03;;;;;;;5.74;82.69;99966.06;5093798;28;20044;-66
2022/01/09 04:47:47;;;;;;;11.10;1.70;;;;;;;5.76;82.50;99987.63;5094902;28;20501;-67
2022/01/09 04:50:21;;;;;;;9.80;1.77;;;;;;;5.91;82.12;99990.13;5095513;28;20056;-67
2022/01/09 04:52:52;;;;;;;13.45;3.25;;;;;;;5.95;81.88;99980.22;5093924;28;20048;-67
2022/01/09 04:55:21;;;;;;;16.70;1.85;;;;;;;5.97;82.61;99978.00;5094854;28;20506;-68
2022/01/09 04:57:48;;;;;;;18.58;2.40;;;;;;;5.99;82.56;99989.44;5094355;28;20048;-67
2022/01/09 05:00:15;;;;;;;11.13;2.03;;;;;;;6.01;82.52;99983.69;5093709;28;20056;-67
2022/01/09 05:02:43;;;;;;;11.82;2.13;;;;;;;5.89;83.14;99992.38;5094900;28;20059;-67
2022/01/09 05:05:11;;;;;;;13.88;1.77;;;;;;;6.09;83.27;99991.16;5095329;28;20047;-68
2022/01/09 05:07:39;;;;;;;15.18;2.15;;;;;;;6.22;83.01;99983.00;5059491;28;20059;-67
2022/01/09 05:10:07;;;;;;;11.07;1.73;;;;;;;5.70;82.52;99997.03;5094865;28;20049;-67
2022/01/09 05:12:35;;;;;;;17.13;2.17;;;;;;;5.60;84.74;99998.00;5094936;28;20036;-67
2022/01/09 05:15:04;;;;;;;12.98;2.28;;;;;;;5.92;84.73;99986.28;5096387;28;20482;-66
2022/01/09 05:17:32;;;;;;;19.08;2.97;;;;;;;5.95;84.53;99990.34;5098683;28;20044;-67
2022/01/09 05:19:59;;;;;;;22.48;3.75;;;;;;;6.12;84.55;100004.25;5097673;28;20044;-67
2022/01/09 05:22:27;;;;;;;13.80;2.65;;;;;;;6.29;83.66;99979.88;5098499;28;20059;-67
2022/01/09 05:24:58;;;;;;;16.67;2.70;;;;;;;6.36;83.19;99983.81;5098657;28;20364;-67
2022/01/09 05:27:25;;;;;;;24.90;3.90;;;;;;;6.26;83.39;99980.47;5098386;28;20404;-66
2022/01/09 05:29:52;;;;;;;17.67;2.47;;;;;;;6.32;83.41;99976.50;5097352;28;20055;-67
2022/01/09 05:32:20;;;;;;;13.40;2.17;;;;;;;6.23;83.56;99957.28;5098683;28;20056;-67
2022/01/09 05:34:47;;;;;;;16.77;3.30;;;;;;;6.18;83.44;99962.03;5098555;28;20395;-66
2022/01/09 05:37:14;;;;;;;14.57;2.60;;;;;;;6.41;83.24;99958.28;5096881;28;20541;-67
2022/01/09 05:39:42;;;;;;;18.15;2.85;;;;;;;6.67;82.43;99949.25;5098225;28;20058;-67
2022/01/09 05:42:11;;;;;;;15.65;2.30;;;;;;;6.50;81.82;99957.25;5098268;28;20048;-68
2022/01/09 05:44:39;;;;;;;18.55;2.65;;;;;;;6.51;82.54;99953.41;5082739;28;20063;-67
2022/01/09 05:47:07;;;;;;;15.73;2.65;;;;;;;6.42;82.25;99959.91;5076363;28;20053;-66
2022/01/09 05:49:34;;;;;;;13.50;2.05;;;;;;;6.55;82.01;99961.84;5076637;28;20491;-67
2022/01/09 05:52:02;;;;;;;16.55;2.15;;;;;;;6.47;81.73;99960.59;5089808;28;20052;-68
2022/01/09 05:54:30;;;;;;;23.58;3.13;;;;;;;6.30;81.20;99954.94;5097933;28;20048;-66
2022/01/09 05:56:57;;;;;;;25.25;3.28;;;;;;;6.17;81.57;99961.19;5096085;28;20522;-67
2022/01/09 05:59:24;;;;;;;16.08;2.53;;;;;;;6.31;81.48;99955.75;5097532;28;20040;-67
2022/01/09 06:01:52;;;;;;;21.52;3.35;;;;;;;6.34;81.29;99957.88;5096634;28;20060;-69
2022/01/09 06:04:19;;;;;;;19.33;2.38;;;;;;;6.37;81.02;99962.75;5096777;28;20099;-67
2022/01/09 06:06:46;;;;;;;20.25;3.97;;;;;;;6.43;80.78;99970.53;5097486;28;20062;-67
2022/01/09 06:09:14;;;;;;;15.18;2.53;;;;;;;6.14;81.67;99971.94;5095864;28;20053;-67
2022/01/09 06:11:41;;;;;;;11.68;2.15;;;;;;;6.18;81.70;99973.78;5097942;28;20066;-67
2022/01/09 06:14:08;;;;;;;18.25;3.13;;;;;;;5.91;82.89;99981.13;5096136;28;20071;-66
2022/01/09 06:16:35;;;;;;;14.55;1.98;;;;;;;6.33;81.94;99989.88;5097614;28;20399;-66
2022/01/09 06:19:03;;;;;;;12.57;2.15;;;;;;;6.21;81.00;99992.31;5079893;28;20051;-67
2022/01/09 06:21:30;;;;;;;18.35;2.20;;;;;;;5.98;82.52;99990.53;5097387;28;20147;-67
2022/01/09 06:23:57;;;;;;;13.05;1.77;;;;;;;5.89;82.17;100002.47;5097637;28;20054;-66
2022/01/09 06:26:24;;;;;;;11.77;1.80;;;;;;;5.73;82.76;100002.72;5096011;28;20051;-66
2022/01/09 06:28:51;;;;;;;11.60;1.88;;;;;;;5.67;82.99;100012.09;5097294;28;20051;-66
2022/01/09 06:31:19;;;;;;;15.18;2.75;;;;;;;5.77;83.12;100013.84;5097552;28;20052;-68
2022/01/09 06:33:46;;;;;;;14.80;1.92;;;;;;;5.97;82.91;100012.72;5097564;28;20044;-66
2022/01/09 06:36:13;;;;;;;12.68;2.50;;;;;;;5.90;82.44;100007.66;5097247;28;20044;-67
2022/01/09 06:38:41;;;;;;;17.70;2.35;;;;;;;5.93;82.80;100012.50;5096978;28;20055;-66
2022/01/09 06:41:09;;;;;;;14.75;2.00;;;;;;;5.89;82.26;100022.44;5097193;28;20048;-66
2022/01/09 06:43:36;;;;;;;14.98;2.10;;;;;;;5.93;82.96;100025.38;5091623;28;20055;-66
2022/01/09 06:46:03;;;;;;;16.42;2.40;;;;;;;6.12;83.28;100039.81;5077063;28;20048;-67
2022/01/09 06:48:30;;;;;;;12.55;1.98;;;;;;;5.97;82.44;100034.56;5076774;28;20067;-67
2022/01/09 06:50:58;;;;;;;12.82;1.88;;;;;;;6.08;83.15;100025.91;5088011;28;20059;-67
2022/01/09 06:53:25;;;;;;;15.23;2.55;;;;;;;5.90;84.02;100004.91;5097085;28;20048;-67
2022/01/09 06:55:52;;;;;;;14.85;2.38;;;;;;;6.01;83.82;100008.28;5096869;28;20503;-67
2022/01/09 06:58:21;;;;;;;13.73;2.00;;;;;;;5.94;83.30;100013.31;5096633;28;20487;-68
2022/01/09 07:00:48;;;;;;;16.05;1.90;;;;;;;6.14;83.62;100007.47;5095703;28;20049;-69
2022/01/09 07:03:16;;;;;;;15.25;1.90;;;;;;;6.33;82.90;100008.25;5095476;28;20063;-67
2022/01/09 07:05:43;;;;;;;16.88;2.10;;;;;;;6.21;83.09;100018.84;5075115;28;20060;-66
2022/01/09 07:08:11;;;;;;;12.43;1.67;;;;;;;6.09;83.57;100023.97;5076191;28;20045;-68
2022/01/09 07:10:38;;;;;;;13.10;2.10;;;;;;;6.12;83.65;100021.44;5076011;28;20037;-68
2022/01/09 07:13:08;;;;;;;11.95;2.25;;;;;;;6.26;83.19;100026.97;5076718;28;20049;-67
2022/01/09 07:15:38;;;;;;;12.43;1.77;;;;;;;6.05;84.10;100025.72;5076509;28;20381;-68
2022/01/09 07:18:05;;;;;;;8.80;1.83;;;;;;;6.28;83.86;100027.44;5074470;28;20057;-66
2022/01/09 07:20:34;;;;;;;11.18;1.85;;;;;;;6.24;84.67;100024.50;5087845;28;20044;-66
2022/01/09 07:23:01;;;;;;;12.02;1.77;;;;;;;6.14;84.63;100023.88;5095126;28;20407;-67
2022/01/09 07:25:29;;;;;;;15.43;1.77;;;;;;;6.13;84.82;100025.00;5096197;28;20055;-67
2022/01/09 07:27:56;;;;;;;12.52;1.65;;;;;;;5.91;84.73;100020.19;5096091;28;20044;-67
2022/01/09 07:30:26;;;;;;;14.02;2.22;;;;;;;5.74;85.55;100023.47;5096321;28;20067;-66
2022/01/09 07:32:54;;;;;;;13.48;2.08;;;;;;;6.04;84.94;100030.34;5096428;28;20383;-68
2022/01/09 07:35:22;;;;;;;11.13;1.85;;;;;;;5.92;84.96;100019.09;5094756;28;20059;-67
2022/01/09 07:37:50;;;;;;;10.63;1.85;;;;;;;5.94;85.57;100016.06;5095367;28;20058;-67
2022/01/09 07:40:17;;;;;;;12.70;1.80;;;;;;;6.24;85.25;100013.56;5095791;28;20044;-68
2022/01/09 07:42:48;;;;;;;11.35;1.90;;;;;;;6.46;84.82;100004.69;5096256;28;20063;-67
2022/01/09 07:45:16;;;;;;;11.05;2.53;;;;;;;6.38;84.68;100005.41;5076309;28;20060;-67
2022/01/09 07:47:43;;;;;;;16.35;3.08;;;;;;;6.49;85.01;100018.56;5075521;28;20059;-67
2022/01/09 07:50:11;;;;;;;14.65;2.30;;;;;;;6.53;84.29;100046.13;5089971;28;20068;-66
2022/01/09 07:52:39;;;;;;;18.23;3.10;;;;;;;6.40;84.02;100045.00;5095677;28;20044;-67
2022/01/09 07:55:08;;;;;;;11.82;2.30;;;;;;;6.44;85.26;100051.50;5095735;28;20530;-68
2022/01/09 07:57:36;;;;;;;15.98;2.30;;;;;;;4.89;87.74;100070.28;5095629;28;20047;-67
2022/01/09 08:00:06;;;;;;;11.65;1.40;;;;;;;5.12;88.99;100064.81;5094636;28;20412;-67
2022/01/09 08:02:40;;;;;;;9.82;2.28;;;;;;;5.29;89.24;100048.75;5095982;28;20047;-67
2022/01/09 08:05:08;;;;;;;13.00;1.75;;;;;;;5.40;89.20;100049.41;5095695;28;20059;-67
2022/01/09 08:07:35;;;;;;;14.25;1.85;;;;;;;5.62;89.07;100044.16;5095480;28;20487;-67
2022/01/09 08:10:03;;;;;;;14.18;1.65;;;;;;;5.79;88.36;100027.22;5095373;28;20051;-68
2022/01/09 08:12:36;;;;;;;15.18;2.42;;;;;;;5.98;87.86;100026.06;5095621;28;20058;-66
2022/01/09 08:15:04;;;;;;;13.32;2.00;;;;;;;5.95;88.24;100026.69;5093655;28;20063;-67
2022/01/09 08:17:32;;;;;;;18.63;2.88;;;;;;;6.14;88.27;100023.88;5095302;28;20075;-67
2022/01/09 08:19:59;;;;;;;16.08;2.60;;;;;;;6.36;87.41;100029.50;5093993;28;20047;-67
2022/01/09 08:22:29;;;;;;;9.95;1.90;;;;;;;6.39;87.08;100029.72;5093986;28;20052;-67
2022/01/09 08:24:57;;;;;;;11.18;2.20;;;;;;;6.55;86.43;100050.19;5095151;28;20083;-67
2022/01/09 08:27:24;;;;;;;18.52;2.47;;;;;;;6.48;87.02;100046.22;5094060;28;20051;-66
2022/01/09 08:29:51;;;;;;;12.65;2.30;;;;;;;6.31;86.19;100026.88;5095333;28;20078;-67
2022/01/09 08:32:18;;;;;;;10.93;1.88;;;;;;;6.36;86.81;100032.25;5075327;28;20064;-66
2022/01/09 08:34:46;;;;;;;6.20;1.25;;;;;;;6.16;86.47;100044.34;5075284;28;20546;-67
2022/01/09 08:37:13;;;;;;;6.75;1.60;;;;;;;6.37;86.65;100047.53;5075160;28;20057;-67
2022/01/09 08:39:41;;;;;;;7.35;1.35;;;;;;;6.44;84.80;100040.56;5073412;28;20056;-67
2022/01/09 08:42:09;;;;;;;8.18;1.60;;;;;;;6.27;85.29;100042.25;5073945;28;20056;-67
2022/01/09 08:44:37;;;;;;;8.88;1.40;;;;;;;6.44;87.36;100023.31;5087399;28;20067;-67
2022/01/09 08:47:05;;;;;;;9.02;1.38;;;;;;;6.17;85.27;100015.88;5095304;28;20048;-67
2022/01/09 08:49:33;;;;;;;11.05;1.90;;;;;;;6.00;86.33;100029.31;5078810;28;20052;-67
2022/01/09 08:52:00;;;;;;;8.93;1.70;;;;;;;5.95;86.45;100032.16;5099400;28;20040;-67
2022/01/09 08:54:28;;;;;;;7.85;1.42;;;;;;;6.08;87.23;100031.38;5097784;28;20059;-67
2022/01/09 08:56:56;;;;;;;14.50;2.08;;;;;;;6.20;86.88;100031.72;5098335;28;20078;-67
2022/01/09 08:59:24;;;;;;;10.38;2.25;;;;;;;6.12;87.34;100026.13;5098488;28;20485;-68
2022/01/09 09:01:51;;;;;;;6.68;1.75;;;;;;;6.15;87.55;100029.06;5099280;28;20060;-67
2022/01/09 09:04:19;;;;;;;8.20;1.45;;;;;;;6.35;86.97;100025.94;5097954;28;20056;-67
2022/01/09 09:06:46;;;;;;;8.40;1.52;;;;;;;6.48;86.28;100024.34;5097313;28;20059;-66
2022/01/09 09:09:14;;;;;;;8.60;1.75;;;;;;;6.54;85.46;100043.09;5098282;28;20056;-66
2022/01/09 09:11:41;;;;;;;9.68;1.67;;;;;;;6.32;85.77;100039.41;5096108;28;20048;-66
2022/01/09 09:14:08;;;;;;;11.15;2.25;;;;;;;6.36;86.46;100043.19;5098216;28;20056;-65
2022/01/09 09:16:36;;;;;;;12.98;3.00;;;;;;;6.80;85.93;100052.41;5098879;28;20063;-66
2022/01/09 09:19:03;;;;;;;12.77;2.30;;;;;;;6.55;85.47;100044.72;5098410;28;20048;-65
2022/01/09 09:21:30;;;;;;;12.77;3.65;;;;;;;6.68;86.09;100043.91;5098464;28;20453;-66
2022/01/09 09:23:57;;;;;;;12.77;3.70;;;;;;;6.81;85.66;100048.59;5097547;28;20048;-68
2022/01/09 09:26:25;;;;;;;11.32;2.25;;;;;;;6.76;85.44;100056.88;5098075;28;20040;-67
2022/01/09 09:28:53;;;;;;;13.90;1.98;;;;;;;6.53;85.54;100055.16;5076758;28;20118;-67
2022/01/09 09:31:20;;;;;;;12.38;2.10;;;;;;;6.72;86.14;100061.34;5078524;28;20059;-66
2022/01/09 09:33:47;;;;;;;18.80;3.45;;;;;;;6.69;86.52;100063.88;5095616;28;20356;-68
2022/01/09 09:36:15;;;;;;;13.18;2.65;;;;;;;6.59;85.20;100064.09;5097061;28;20647;-68
2022/01/09 09:38:42;;;;;;;15.60;2.22;;;;;;;6.43;85.94;100052.59;5097999;28;20052;-67
2022/01/09 09:41:09;;;;;;;11.32;2.40;;;;;;;6.47;85.71;100048.16;5097342;28;20040;-68
2022/01/09 09:43:36;;;;;;;18.13;2.63;;;;;;;6.82;85.64;100061.13;5093250;28;20048;-67
2022/01/09 09:46:04;;;;;;;8.57;2.08;;;;;;;6.92;85.45;100043.72;5097567;28;20048;-68
2022/01/09 09:48:31;;;;;;;16.90;2.60;;;;;;;7.31;83.22;100043.13;5097670;28;20519;-68
2022/01/09 09:50:59;;;;;;;12.00;1.85;;;;;;;7.34;82.67;100057.00;5097534;28;20036;-68
2022/01/09 09:53:26;;;;;;;15.60;2.50;;;;;;;7.25;81.58;100078.06;5096138;28;20051;-68
2022/01/09 09:55:53;;;;;;;10.10;1.90;;;;;;;7.18;81.96;100074.91;5097698;28;20071;-67
2022/01/09 09:58:22;;;;;;;18.48;4.57;;;;;;;7.02;82.68;100072.78;5096493;28;20169;-68
2022/01/09 10:00:54;;;;;;;12.98;2.60;;;;;;;7.04;82.65;100081.50;5096762;28;20036;-68
2022/01/09 10:03:31;;;;;;;10.25;1.40;;;;;;;6.82;83.14;100083.03;5096244;28;20052;-73
2022/01/09 10:06:00;;;;;;;12.55;2.08;;;;;;;6.91;83.29;100072.19;5093705;28;20410;-68
2022/01/09 10:08:38;;;;;;;10.27;1.98;;;;;;;6.60;81.52;100082.09;5097132;28;20063;-69
2022/01/09 10:11:17;;;;;;;8.73;1.98;;;;;;;6.65;82.49;100082.84;5096913;28;20495;-68
2022/01/09 10:13:45;;;;;;;9.43;1.95;;;;;;;6.61;83.28;100081.81;5097357;28;20145;-67
2022/01/09 10:16:13;;;;;;;12.05;1.55;;;;;;;6.46;83.64;100075.81;5097601;28;20058;-67
2022/01/09 10:18:49;;;;;;;13.57;1.85;;;;;;;6.68;84.26;100070.44;5097613;28;20052;-66
2022/01/09 10:21:18;;;;;;;15.18;2.75;;;;;;;6.60;84.14;100069.25;5097232;28;20067;-68
2022/01/09 10:24:07;;;;;;;8.38;1.85;;;;;;;6.69;84.07;100074.81;5097136;28;20044;-68
2022/01/09 10:26:39;;;;;;;10.43;1.90;;;;;;;6.91;83.44;100079.56;5097136;28;20060;-67
2022/01/09 10:29:08;;;;;;;13.57;1.80;;;;;;;6.89;83.44;100081.84;5094546;28;20052;-68
2022/01/09 10:31:46;;;;;;;7.85;1.73;;;;;;;7.27;82.44;100099.66;5095450;28;20044;-68
2022/01/09 10:34:16;;;;;;;8.98;1.65;;;;;;;7.20;82.07;100097.31;5096122;28;20051;-68
2022/01/09 10:36:48;;;;;;;;;;;;;;;6.94;81.99;100106.38;5094410;28;20058;-68
2022/01/09 10:39:17;;;;;;;6.35;1.25;;;;;;;6.76;83.50;100097.91;5096787;28;20271;-68
2022/01/09 10:41:48;;;;;;;5.27;1.20;;;;;;;6.82;84.98;100093.16;5096846;28;20052;-68
2022/01/09 10:44:20;;;;;;;6.82;1.55;;;;;;;7.21;83.15;100098.94;5076719;28;20418;-68
2022/01/09 10:46:55;;;;;;;3.85;1.10;;;;;;;7.00;81.62;100096.91;5099724;28;20063;-68
2022/01/09 10:49:24;;;;;;;4.82;0.95;;;;;;;7.19;82.54;100092.94;5096243;28;20431;-68
2022/01/09 10:51:51;;;;;;;6.93;1.52;;;;;;;7.36;81.44;100095.03;5095909;28;20036;-68
2022/01/09 10:54:29;;;;;;;4.05;0.70;;;;;;;7.19;80.77;100103.91;5083588;28;20040;-69
2022/01/09 10:57:15;;;;;;;6.13;1.40;;;;;;;6.96;81.14;100104.94;5086376;28;20052;-70
2022/01/09 10:59:43;;;;;;;2.80;0.93;;;;;;;6.96;82.16;100113.13;5095616;28;20391;-65
2022/01/09 11:02:12;;;;;;;4.50;1.08;;;;;;;6.99;82.83;100109.78;5085707;28;21430;-70
2022/01/09 11:04:41;;;;;;;8.70;2.63;;;;;;;6.78;82.76;100120.31;5088561;28;20506;-70
2022/01/09 11:07:10;;;;;;;4.43;1.30;;;;;;;6.41;84.47;100116.94;5094424;28;20078;-66
2022/01/09 11:09:39;;;;;;;4.03;1.10;;;;;;;6.34;84.43;100117.34;5077695;28;20055;-68
2022/01/09 11:12:07;;;;;;;4.50;1.10;;;;;;;6.05;85.46;100124.91;5089335;28;20060;-68
2022/01/09 11:14:40;;;;;;;8.10;1.63;;;;;;;5.92;86.84;100133.88;5097298;28;20052;-66
2022/01/09 11:17:08;;;;;;;4.25;1.10;;;;;;;6.01;86.23;100121.16;5087272;28;20153;-66
2022/01/09 11:19:37;;;;;;;7.30;1.77;;;;;;;5.96;86.51;100114.97;5090972;28;20078;-66
2022/01/09 11:22:07;;;;;;;4.28;1.20;;;;;;;5.64;86.25;100112.97;5091745;28;20391;-66
2022/01/09 11:25:02;;;;;;;6.72;1.17;;;;;;;5.56;85.64;100116.38;5088567;28;20040;-66
2022/01/09 11:27:32;;;;;;;3.55;1.35;;;;;;;5.64;87.18;100121.97;5091650;28;20055;-66
2022/01/09 11:30:05;;;;;;;4.22;1.13;;;;;;;6.10;87.06;100126.78;5095915;28;20052;-65
2022/01/09 11:32:51;;;;;;;5.72;1.80;;;;;;;5.82;86.59;100139.47;5106699;28;20150;-66
2022/01/09 11:35:39;;;;;;;4.72;1.30;;;;;;;5.94;87.25;100134.41;5076760;28;20710;-66
2022/01/09 11:38:32;;;;;;;5.75;1.40;;;;;;;6.23;85.33;100126.81;5082271;28;20056;-66
2022/01/09 11:41:20;;;;;;;5.03;1.33;;;;;;;6.23;85.36;100120.53;5088094;28;20056;-68